Time;durP1;ratioP1;P1;durP2;ratioP2;P2;SDS_P1;SDS_P2;PMS_P1;PMS_P2;Temp;Humidity;BMP_temperature;BMP_pressure;BME280_temperature;BME280_humidity;BME280_pressure;Samples;Min_cycle;Max_cycle;Signal;HPM_P1;HPM_P2
2023/04/07 00:00:48;;;;;;;17.42;11.35;;;6.80;32.60;;;;;;5029455;28;20459;-75
2023/04/07 00:03:15;;;;;;;17.30;10.43;;;6.80;38.80;;;;;;5030981;28;20040;-75
2023/04/07 00:05:41;;;;;;;16.65;11.07;;;6.80;39.00;;;;;;5031550;28;20042;-74
2023/04/07 00:08:07;;;;;;;17.98;10.52;;;6.80;38.50;;;;;;5022529;28;20389;-75
2023/04/07 00:10:33;;;;;;;22.05;10.63;;;6.80;34.00;;;;;;5022865;28;20502;-75
2023/04/07 00:13:00;;;;;;;14.73;9.85;;;6.70;29.20;;;;;;5030487;28;20045;-75
2023/04/07 00:15:26;;;;;;;13.80;9.73;;;6.70;25.30;;;;;;5026810;28;20482;-75
2023/04/07 00:17:52;;;;;;;16.80;9.95;;;6.80;20.00;;;;;;5029759;28;20044;-75
2023/04/07 00:20:18;;;;;;;14.48;9.57;;;6.80;15.30;;;;;;5028819;28;20044;-75
2023/04/07 00:22:45;;;;;;;15.30;9.65;;;6.80;12.00;;;;;;5029459;28;20368;-75
2023/04/07 00:25:11;;;;;;;16.35;10.90;;;6.80;12.60;;;;;;5032270;28;20029;-77
2023/04/07 00:27:37;;;;;;;17.75;10.45;;;6.80;13.30;;;;;;5030601;28;20044;-75
2023/04/07 00:30:04;;;;;;;14.18;9.60;;;6.80;8.90;;;;;;5028877;28;20056;-75
2023/04/07 00:32:30;;;;;;;15.88;10.35;;;6.80;9.80;;;;;;5025468;28;20049;-76
2023/04/07 00:34:56;;;;;;;13.13;8.98;;;6.90;7.40;;;;;;5030560;28;20046;-75
2023/04/07 00:37:24;;;;;;;16.20;10.00;;;6.80;1.00;;;;;;5028803;28;20045;-75
2023/04/07 00:39:51;;;;;;;14.88;9.73;;;6.90;1.00;;;;;;5030085;28;20042;-74
2023/04/07 00:42:18;;;;;;;13.18;9.50;;;6.90;2.70;;;;;;5025130;28;20061;-75
2023/04/07 00:44:44;;;;;;;15.82;9.52;;;6.80;1.20;;;;;;5026809;28;20068;-75
2023/04/07 00:47:11;;;;;;;17.08;9.50;;;6.80;1.40;;;;;;5025996;28;20029;-74
2023/04/07 00:49:37;;;;;;;13.15;9.70;;;6.90;1.00;;;;;;5031935;28;20037;-76
2023/04/07 00:52:05;;;;;;;12.25;9.00;;;6.80;1.00;;;;;;5033089;28;20037;-74
2023/04/07 00:54:31;;;;;;;14.80;9.95;;;6.90;1.00;;;;;;5030852;28;20045;-74
2023/04/07 00:56:58;;;;;;;13.93;9.57;;;6.90;1.00;;;;;;5030123;28;20028;-74
2023/04/07 00:59:24;;;;;;;14.25;9.68;;;6.90;1.00;;;;;;5030806;28;20038;-74
2023/04/07 01:02:03;;;;;;;13.80;9.48;;;6.90;1.00;;;;;;5033044;28;20029;-74
2023/04/07 01:04:53;;;;;;;13.60;9.35;;;6.90;1.00;;;;;;5031330;28;20030;-74
2023/04/07 01:07:27;;;;;;;13.93;9.65;;;6.90;1.00;;;;;;5033971;28;20049;-75
2023/04/07 01:10:05;;;;;;;14.90;9.48;;;6.90;1.00;;;;;;5032769;28;20245;-75
2023/04/07 01:13:00;;;;;;;12.73;8.85;;;6.90;1.00;;;;;;5032367;28;20037;-75
2023/04/07 01:15:29;;;;;;;15.27;10.20;;;6.90;1.00;;;;;;5030343;28;20494;-75
2023/04/07 01:18:25;;;;;;;14.13;8.70;;;6.90;1.00;;;;;;5038988;28;20053;-75
2023/04/07 01:20:55;;;;;;;13.68;9.95;;;6.90;1.00;;;;;;5031330;28;20100;-76
2023/04/07 01:23:48;;;;;;;17.47;10.50;;;6.90;1.00;;;;;;5034648;28;20069;-75
2023/04/07 01:26:14;;;;;;;15.77;11.07;;;6.90;1.00;;;;;;5032691;28;20514;-75
2023/04/07 01:28:45;;;;;;;13.15;9.20;;;6.90;1.00;;;;;;5034611;28;20041;-74
2023/04/07 01:31:13;;;;;;;17.60;9.60;;;6.90;1.00;;;;;;5028705;28;20033;-76
2023/04/07 01:33:44;;;;;;;14.05;9.07;;;6.90;1.00;;;;;;5033464;28;20045;-75
2023/04/07 01:36:11;;;;;;;16.15;9.25;;;6.90;1.00;;;;;;5027709;28;20033;-75
2023/04/07 01:38:38;;;;;;;14.98;8.90;;;6.90;1.00;;;;;;5033059;28;20033;-76
2023/04/07 01:41:06;;;;;;;14.15;9.30;;;6.90;1.00;;;;;;5030985;28;20477;-76
2023/04/07 01:43:32;;;;;;;15.82;9.68;;;6.90;1.00;;;;;;5024037;28;20057;-75
2023/04/07 01:46:00;;;;;;;13.57;9.05;;;6.90;1.00;;;;;;5033586;28;20360;-75
2023/04/07 01:48:27;;;;;;;12.82;8.45;;;7.00;1.00;;;;;;5037072;28;20528;-75
2023/04/07 01:50:55;;;;;;;17.02;9.02;;;6.90;1.00;;;;;;5028748;28;20486;-74
2023/04/07 01:53:22;;;;;;;11.85;8.50;;;6.90;1.00;;;;;;5030311;28;20447;-75
2023/04/07 01:55:49;;;;;;;13.90;9.77;;;6.90;1.00;;;;;;5040587;28;20498;-75
2023/04/07 01:58:15;;;;;;;14.77;8.75;;;6.90;1.00;;;;;;5025103;28;20046;-74
2023/04/07 02:00:43;;;;;;;14.82;9.50;;;6.90;1.00;;;;;;5027076;28;20045;-76
2023/04/07 02:03:39;;;;;;;15.10;9.55;;;6.90;1.00;;;;;;5027589;28;20494;-75
2023/04/07 02:06:08;;;;;;;15.75;9.38;;;6.90;1.00;;;;;;5046188;28;20050;-74
2023/04/07 02:08:37;;;;;;;14.73;9.98;;;6.90;1.00;;;;;;5032771;28;20365;-75
2023/04/07 02:11:06;;;;;;;14.27;9.52;;;6.90;1.00;;;;;;5030973;28;20380;-74
2023/04/07 02:13:37;;;;;;;14.48;9.80;;;6.90;1.00;;;;;;5024043;28;20049;-75
2023/04/07 02:16:06;;;;;;;16.60;9.88;;;6.90;1.00;;;;;;5026947;28;20045;-74
2023/04/07 02:18:33;;;;;;;16.13;9.18;;;6.90;1.00;;;;;;5030972;28;20040;-74
2023/04/07 02:21:01;;;;;;;12.93;8.77;;;6.90;1.00;;;;;;5027540;28;20040;-74
2023/04/07 02:23:27;;;;;;;16.67;10.40;;;6.90;1.00;;;;;;5031512;28;20062;-74
2023/04/07 02:25:56;;;;;;;13.45;9.35;;;6.80;1.00;;;;;;5039741;28;20041;-74
2023/04/07 02:28:23;;;;;;;13.23;9.10;;;6.80;1.00;;;;;;5028543;28;20411;-75
2023/04/07 02:30:49;;;;;;;13.38;8.98;;;6.80;1.00;;;;;;5025102;28;20037;-75
2023/04/07 02:33:15;;;;;;;15.27;10.05;;;6.80;1.00;;;;;;5031970;28;20030;-75
2023/04/07 02:35:42;;;;;;;16.38;8.80;;;6.70;1.00;;;;;;5029229;28;20048;-75
2023/04/07 02:38:08;;;;;;;19.33;9.68;;;6.80;1.00;;;;;;5028741;28;20030;-75
2023/04/07 02:40:35;;;;;;;13.25;9.68;;;6.70;1.00;;;;;;5024216;28;20033;-75
2023/04/07 02:43:01;;;;;;;16.08;10.45;;;6.60;1.00;;;;;;5031252;28;20048;-74
2023/04/07 02:45:27;;;;;;;14.05;9.85;;;6.60;1.00;;;;;;5040637;28;20053;-75
2023/04/07 02:47:54;;;;;;;13.40;9.68;;;6.60;1.00;;;;;;5028406;28;20037;-75
2023/04/07 02:50:20;;;;;;;17.27;9.98;;;6.60;1.00;;;;;;5024247;28;20042;-75
2023/04/07 02:52:46;;;;;;;13.07;9.13;;;6.50;1.00;;;;;;5029410;28;20041;-74
2023/04/07 02:55:14;;;;;;;16.10;10.07;;;6.40;1.00;;;;;;5032443;28;20037;-74
2023/04/07 02:57:40;;;;;;;13.73;9.95;;;6.40;1.00;;;;;;5023951;28;20061;-74
2023/04/07 03:00:25;;;;;;;15.18;11.20;;;6.40;1.00;;;;;;5016607;28;20053;-74
2023/04/07 03:03:03;;;;;;;16.55;10.50;;;6.30;1.00;;;;;;5022579;28;20044;-74
2023/04/07 03:05:33;;;;;;;16.65;10.50;;;6.30;1.00;;;;;;5029758;28;20033;-73
2023/04/07 03:08:00;;;;;;;15.70;10.20;;;6.30;1.00;;;;;;5044948;28;20037;-76
2023/04/07 03:10:27;;;;;;;19.77;11.20;;;6.30;1.00;;;;;;5025517;28;20064;-74
2023/04/07 03:12:53;;;;;;;15.80;10.32;;;6.20;1.00;;;;;;5031596;28;20382;-74
2023/04/07 03:15:20;;;;;;;13.40;9.90;;;6.20;1.00;;;;;;5025424;28;20044;-74
2023/04/07 03:17:48;;;;;;;15.27;9.68;;;6.20;1.00;;;;;;5031880;28;20394;-80
2023/04/07 03:20:16;;;;;;;17.50;11.32;;;6.20;1.00;;;;;;5025492;28;20050;-74
2023/04/07 03:22:43;;;;;;;16.50;9.95;;;6.20;1.00;;;;;;5027531;28;20060;-74
2023/04/07 03:25:16;;;;;;;15.20;10.57;;;6.10;1.00;;;;;;5030987;28;20052;-75
2023/04/07 03:27:42;;;;;;;16.15;10.95;;;6.10;1.00;;;;;;5038199;28;20049;-75
2023/04/07 03:30:11;;;;;;;15.98;10.93;;;6.00;1.50;;;;;;5018427;28;20049;-74
2023/04/07 03:32:41;;;;;;;18.58;11.50;;;6.10;4.00;;;;;;5027144;28;20048;-74
2023/04/07 03:35:09;;;;;;;15.02;11.18;;;6.10;1.00;;;;;;5028705;28;20221;-75
2023/04/07 03:37:36;;;;;;;13.63;9.73;;;6.00;1.90;;;;;;5027924;28;20049;-74
2023/04/07 03:40:06;;;;;;;18.30;11.90;;;5.90;7.30;;;;;;5033061;28;20041;-74
2023/04/07 03:42:35;;;;;;;19.08;10.55;;;5.90;9.20;;;;;;5026923;28;20065;-75
2023/04/07 03:45:05;;;;;;;16.20;10.75;;;5.80;18.00;;;;;;5019844;28;20056;-75
2023/04/07 03:47:33;;;;;;;17.55;11.20;;;5.90;21.90;;;;;;5036758;28;20054;-75
2023/04/07 03:50:02;;;;;;;18.58;10.75;;;6.00;21.80;;;;;;5033008;28;20046;-75
2023/04/07 03:52:32;;;;;;;15.60;11.60;;;6.00;15.30;;;;;;5032185;28;20510;-75
2023/04/07 03:55:07;;;;;;;15.07;10.48;;;5.90;12.80;;;;;;5025848;28;20046;-75
2023/04/07 03:57:34;;;;;;;18.33;12.50;;;6.00;15.00;;;;;;5026904;28;20393;-75
2023/04/07 04:00:02;;;;;;;13.93;10.35;;;6.00;16.00;;;;;;5026118;28;20045;-75
2023/04/07 04:02:42;;;;;;;14.15;9.80;;;6.00;17.20;;;;;;5030592;28;20041;-74
2023/04/07 04:05:10;;;;;;;16.52;11.50;;;6.10;14.80;;;;;;5027323;28;20187;-75
2023/04/07 04:07:39;;;;;;;16.85;10.48;;;6.10;13.80;;;;;;5020283;28;20042;-75
2023/04/07 04:10:06;;;;;;;18.30;11.88;;;6.20;11.50;;;;;;5027581;28;20037;-76
2023/04/07 04:12:38;;;;;;;16.85;11.73;;;6.10;11.90;;;;;;5023957;28;20056;-75
2023/04/07 04:15:09;;;;;;;19.77;11.82;;;6.20;13.70;;;;;;5025035;28;20049;-76
2023/04/07 04:17:36;;;;;;;16.05;10.65;;;6.20;12.50;;;;;;5029303;28;20486;-76
2023/04/07 04:20:04;;;;;;;16.20;10.75;;;6.40;3.40;;;;;;5034295;28;20045;-76
2023/04/07 04:22:41;;;;;;;19.38;12.00;;;6.40;1.00;;;;;;5029067;28;20061;-74
2023/04/07 04:25:08;;;;;;;17.45;10.65;;;6.30;1.00;;;;;;5031353;28;20137;-75
2023/04/07 04:27:35;;;;;;;17.58;10.20;;;6.30;1.00;;;;;;5033392;28;20049;-75
2023/04/07 04:30:07;;;;;;;16.45;10.48;;;6.30;1.00;;;;;;5027709;28;20053;-76
2023/04/07 04:32:38;;;;;;;15.25;10.50;;;6.30;1.00;;;;;;5032812;28;20375;-76
2023/04/07 04:35:05;;;;;;;17.00;10.35;;;6.30;1.40;;;;;;5034235;28;20166;-75
2023/04/07 04:37:37;;;;;;;16.08;10.88;;;6.30;3.00;;;;;;5033858;28;20037;-75
2023/04/07 04:40:08;;;;;;;15.55;11.65;;;6.40;1.00;;;;;;5031361;28;20045;-75
2023/04/07 04:42:35;;;;;;;14.15;9.52;;;6.50;1.00;;;;;;5045561;28;20060;-75
2023/04/07 04:45:03;;;;;;;14.23;9.80;;;6.50;1.00;;;;;;5033384;28;20053;-76
2023/04/07 04:47:31;;;;;;;17.00;10.10;;;6.50;1.00;;;;;;5030584;28;20042;-75
2023/04/07 04:49:57;;;;;;;14.60;9.95;;;6.50;1.00;;;;;;5033490;28;20049;-75
2023/04/07 04:52:24;;;;;;;16.42;10.02;;;6.60;1.00;;;;;;5032800;28;20065;-76
2023/04/07 04:54:50;;;;;;;13.75;9.18;;;6.50;1.00;;;;;;5031172;28;20041;-76
2023/04/07 04:57:19;;;;;;;16.65;10.55;;;6.60;1.00;;;;;;5033692;28;20049;-76
2023/04/07 04:59:45;;;;;;;18.20;10.20;;;6.60;1.00;;;;;;5027295;28;20695;-75
2023/04/07 05:02:11;;;;;;;16.75;11.02;;;6.60;1.00;;;;;;5031550;28;20265;-76
2023/04/07 05:04:37;;;;;;;16.55;10.43;;;6.60;1.00;;;;;;5031320;28;20037;-75
2023/04/07 05:07:21;;;;;;;15.23;10.18;;;6.60;1.00;;;;;;5018925;28;20046;-75
2023/04/07 05:09:47;;;;;;;13.48;8.93;;;6.70;1.00;;;;;;5033319;28;20501;-76
2023/04/07 05:12:15;;;;;;;16.33;9.85;;;6.70;1.00;;;;;;5040381;28;20044;-76
2023/04/07 05:14:46;;;;;;;16.88;10.60;;;6.70;1.00;;;;;;5026892;28;20041;-77
2023/04/07 05:17:13;;;;;;;15.48;10.35;;;6.70;1.00;;;;;;5034250;28;20421;-76
2023/04/07 05:19:39;;;;;;;14.15;9.98;;;6.70;1.00;;;;;;5029088;28;20479;-77
2023/04/07 05:22:15;;;;;;;14.65;9.48;;;6.80;1.00;;;;;;5031517;28;20037;-76
2023/04/07 05:24:51;;;;;;;15.93;9.50;;;6.80;1.00;;;;;;5029298;28;20061;-76
2023/04/07 05:27:18;;;;;;;13.60;10.00;;;6.80;1.00;;;;;;5033326;28;20037;-76
2023/04/07 05:29:48;;;;;;;18.80;10.70;;;6.80;1.00;;;;;;5028578;28;20053;-76
2023/04/07 05:32:23;;;;;;;19.73;9.98;;;6.80;1.00;;;;;;5044758;28;20045;-77
2023/04/07 05:34:50;;;;;;;17.77;10.65;;;6.80;1.00;;;;;;5029485;28;20053;-76
2023/04/07 05:37:17;;;;;;;16.25;10.77;;;6.80;1.00;;;;;;5043530;28;20053;-76
2023/04/07 05:39:43;;;;;;;12.77;8.73;;;6.90;1.00;;;;;;5041137;28;20048;-76
2023/04/07 05:42:12;;;;;;;16.38;10.00;;;6.90;1.00;;;;;;5031535;28;20049;-76
2023/04/07 05:44:39;;;;;;;16.00;9.98;;;6.90;1.00;;;;;;5042909;28;20041;-76
2023/04/07 05:47:07;;;;;;;16.40;10.68;;;6.90;1.00;;;;;;5029823;28;20048;-77
2023/04/07 05:49:35;;;;;;;14.40;9.13;;;7.00;1.00;;;;;;5029532;28;20045;-76
2023/04/07 05:52:05;;;;;;;15.57;9.75;;;7.00;1.00;;;;;;5042465;28;20491;-77
2023/04/07 05:54:36;;;;;;;20.33;11.00;;;7.00;1.00;;;;;;5031655;28;20041;-76
2023/04/07 05:57:04;;;;;;;16.15;10.65;;;7.00;1.00;;;;;;5027262;28;20135;-76
2023/04/07 05:59:32;;;;;;;14.38;9.27;;;7.00;1.00;;;;;;5024200;28;20045;-76
2023/04/07 06:01:59;;;;;;;16.50;11.00;;;7.10;1.00;;;;;;5026755;28;20041;-76
2023/04/07 06:04:25;;;;;;;15.43;10.20;;;7.10;1.00;;;;;;5038700;28;20041;-76
2023/04/07 06:06:54;;;;;;;14.85;10.38;;;7.10;1.00;;;;;;5032921;28;20037;-76
2023/04/07 06:09:21;;;;;;;13.45;9.38;;;7.20;1.00;;;;;;5034281;28;20045;-76
2023/04/07 06:11:47;;;;;;;14.35;9.40;;;7.20;1.00;;;;;;5030191;28;20498;-77
2023/04/07 06:14:16;;;;;;;13.55;9.27;;;7.30;1.00;;;;;;5027001;28;20041;-76
2023/04/07 06:16:43;;;;;;;12.77;9.20;;;7.30;1.00;;;;;;5031065;28;20041;-76
2023/04/07 06:19:10;;;;;;;13.10;9.45;;;7.40;1.00;;;;;;5013195;28;20466;-76
2023/04/07 06:21:36;;;;;;;15.25;9.05;;;7.50;1.00;;;;;;5027365;28;20041;-76
2023/04/07 06:24:05;;;;;;;13.98;8.25;;;7.50;1.00;;;;;;5030390;28;20049;-76
2023/04/07 06:26:35;;;;;;;12.50;7.78;;;7.70;1.00;;;;;;5029739;28;20038;-77
2023/04/07 06:29:01;;;;;;;13.57;8.15;;;7.80;1.00;;;;;;5028740;28;20041;-76
2023/04/07 06:31:27;;;;;;;14.75;8.82;;;7.90;1.00;;;;;;5032187;28;20056;-77
2023/04/07 06:33:54;;;;;;;15.85;8.30;;;8.00;1.00;;;;;;5028877;28;20046;-76
2023/04/07 06:36:20;;;;;;;10.45;7.50;;;8.10;1.00;;;;;;5033189;28;20025;-76
2023/04/07 06:38:46;;;;;;;13.35;8.90;;;8.20;1.00;;;;;;5030554;28;20033;-76
2023/04/07 06:41:15;;;;;;;15.23;9.55;;;8.20;1.00;;;;;;5031091;28;20033;-76
2023/04/07 06:43:43;;;;;;;13.25;8.57;;;8.30;1.00;;;;;;5031742;28;20037;-77
2023/04/07 06:46:09;;;;;;;10.90;7.88;;;8.50;1.00;;;;;;5032540;28;20044;-75
2023/04/07 06:48:35;;;;;;;13.65;8.63;;;8.50;1.00;;;;;;5036000;28;20402;-76
2023/04/07 06:51:02;;;;;;;11.88;8.32;;;8.60;1.00;;;;;;5029996;28;20050;-76
2023/04/07 06:53:28;;;;;;;15.25;8.70;;;8.70;1.00;;;;;;5033405;28;20113;-75
2023/04/07 06:56:05;;;;;;;12.80;8.85;;;8.90;1.00;;;;;;5029457;28;20041;-76
2023/04/07 06:58:31;;;;;;;12.90;8.15;;;9.20;1.00;;;;;;5031013;28;20029;-76
2023/04/07 07:00:57;;;;;;;15.05;9.75;;;9.30;1.00;;;;;;5028215;28;20042;-76
2023/04/07 07:03:26;;;;;;;10.82;7.80;;;9.40;1.00;;;;;;5024869;28;20041;-75
2023/04/07 07:05:55;;;;;;;11.82;8.77;;;9.50;1.00;;;;;;5031866;28;20032;-74
2023/04/07 07:08:22;;;;;;;11.18;7.80;;;9.40;1.00;;;;;;5029460;28;20037;-74
2023/04/07 07:10:48;;;;;;;13.18;9.32;;;9.50;1.00;;;;;;5031451;28;20041;-75
2023/04/07 07:13:14;;;;;;;13.05;8.80;;;9.70;1.00;;;;;;5025786;28;20029;-76
2023/04/07 07:15:41;;;;;;;10.55;7.60;;;9.90;1.00;;;;;;5030759;28;20042;-74
2023/04/07 07:18:07;;;;;;;10.20;7.80;;;10.00;99.90;;;;;;5028277;28;20387;-76
2023/04/07 07:20:33;;;;;;;10.18;7.25;;;10.20;99.90;;;;;;5033975;28;20044;-75
2023/04/07 07:22:59;;;;;;;11.80;7.30;;;10.20;99.90;;;;;;5034210;28;20037;-74
2023/04/07 07:25:26;;;;;;;11.43;7.65;;;10.40;99.90;;;;;;5031777;28;20038;-75
2023/04/07 07:27:52;;;;;;;10.88;6.75;;;10.70;99.90;;;;;;5030790;28;20041;-75
2023/04/07 07:30:22;;;;;;;11.48;6.70;;;10.80;99.90;;;;;;5028369;28;20041;-76
2023/04/07 07:32:49;;;;;;;10.88;7.18;;;10.80;99.90;;;;;;5031987;28;20033;-76
2023/04/07 07:35:15;;;;;;;9.07;6.18;;;11.00;99.90;;;;;;5027305;28;20041;-76
2023/04/07 07:37:43;;;;;;;10.13;7.30;;;11.30;99.90;;;;;;5030193;28;20463;-78
2023/04/07 07:40:10;;;;;;;9.02;6.00;;;11.60;99.90;;;;;;5029747;28;20044;-75
2023/04/07 07:42:37;;;;;;;10.65;6.50;;;11.80;99.90;;;;;;5032129;28;20053;-75
2023/04/07 07:45:03;;;;;;;8.23;5.95;;;12.30;99.90;;;;;;5027578;28;20140;-75
2023/04/07 07:47:30;;;;;;;8.20;6.35;;;12.40;99.90;;;;;;5032033;28;20053;-77
2023/04/07 07:49:57;;;;;;;8.82;5.75;;;12.50;99.90;;;;;;5030711;28;20614;-77
2023/04/07 07:52:23;;;;;;;8.30;6.22;;;12.60;99.90;;;;;;5029255;28;20087;-77
2023/04/07 07:54:50;;;;;;;6.88;6.15;;;12.00;99.90;;;;;;5027100;28;20025;-77
2023/04/07 07:57:16;;;;;;;9.00;6.15;;;12.20;99.90;;;;;;5032990;28;20033;-78
2023/04/07 07:59:43;;;;;;;8.52;6.03;;;12.20;99.90;;;;;;5031012;28;20041;-77
2023/04/07 08:02:09;;;;;;;10.25;6.65;;;12.20;99.90;;;;;;5030696;28;20038;-76
2023/04/07 08:04:36;;;;;;;11.25;7.35;;;11.80;99.90;;;;;;5031105;28;20040;-76
2023/04/07 08:07:03;;;;;;;11.20;7.07;;;11.70;99.90;;;;;;5027640;28;20041;-76
2023/04/07 08:09:31;;;;;;;12.30;7.18;;;12.40;99.90;;;;;;5025359;28;20036;-76
2023/04/07 08:11:57;;;;;;;12.40;6.53;;;13.30;99.90;;;;;;5023109;28;20077;-76
2023/04/07 08:14:24;;;;;;;14.10;6.32;;;13.40;99.90;;;;;;5038859;28;20040;-75
2023/04/07 08:16:50;;;;;;;11.75;7.10;;;13.70;99.90;;;;;;5026983;28;20042;-75
2023/04/07 08:19:16;;;;;;;9.43;6.40;;;14.00;99.90;;;;;;5021724;28;20030;-76
2023/04/07 08:21:42;;;;;;;9.13;5.93;;;13.80;99.90;;;;;;5031527;28;20132;-77
2023/04/07 08:24:09;;;;;;;9.25;7.00;;;13.40;99.90;;;;;;5024356;28;20033;-78
2023/04/07 08:26:36;;;;;;;10.85;7.13;;;13.30;99.90;;;;;;5031234;28;20044;-78
2023/04/07 08:29:02;;;;;;;11.45;6.82;;;13.50;99.90;;;;;;5023515;28;20030;-76
2023/04/07 08:31:28;;;;;;;8.60;6.35;;;13.60;99.90;;;;;;5024559;28;20052;-75
2023/04/07 08:33:56;;;;;;;9.20;6.05;;;12.50;99.90;;;;;;5021509;28;20047;-75
2023/04/07 08:36:27;;;;;;;11.68;6.30;;;12.30;99.90;;;;;;5027992;28;20037;-74
2023/04/07 08:38:53;;;;;;;;;;;12.00;99.90;;;;;;5028244;28;20053;-76
2023/04/07 08:41:27;;;;;;;6.07;4.57;;;12.10;99.90;;;;;;5031193;28;19909;-75
2023/04/07 08:43:56;;;;;;;7.53;4.78;;;12.40;99.90;;;;;;5027734;28;20037;-74
2023/04/07 08:46:24;;;;;;;7.65;4.22;;;11.90;99.90;;;;;;5023839;28;20342;-75
2023/04/07 08:48:54;;;;;;;6.90;4.15;;;11.70;99.90;;;;;;5026187;28;20030;-74
2023/04/07 08:51:27;;;;;;;8.18;4.57;;;11.80;99.90;;;;;;5025778;28;20042;-75
2023/04/07 08:54:01;;;;;;;6.40;4.30;;;11.90;99.90;;;;;;5021253;28;20073;-75
2023/04/07 08:56:28;;;;;;;7.18;3.88;;;12.20;99.90;;;;;;5023447;28;20453;-75
2023/04/07 08:58:54;;;;;;;6.63;3.45;;;12.40;99.90;;;;;;5029430;28;20036;-75
2023/04/07 09:01:21;;;;;;;8.65;3.90;;;12.40;99.90;;;;;;5030553;28;20040;-77
2023/04/07 09:03:48;;;;;;;4.97;3.42;;;12.00;99.90;;;;;;5030973;28;20563;-75
2023/04/07 09:06:14;;;;;;;7.55;4.47;;;11.70;99.90;;;;;;5030132;28;20034;-76
2023/04/07 09:08:41;;;;;;;7.70;4.82;;;11.60;99.90;;;;;;5028366;28;20026;-75
2023/04/07 09:11:07;;;;;;;7.95;4.55;;;11.90;99.90;;;;;;5029484;28;20056;-75
2023/04/07 09:13:33;;;;;;;6.93;4.55;;;12.40;99.90;;;;;;5032210;28;20037;-75
2023/04/07 09:16:01;;;;;;;6.07;3.60;;;12.40;99.90;;;;;;5033813;28;20040;-75
2023/04/07 09:18:28;;;;;;;6.03;3.88;;;12.30;99.90;;;;;;5029866;28;20474;-75
2023/04/07 09:21:02;;;;;;;5.70;4.03;;;11.90;99.90;;;;;;5033151;28;20150;-75
2023/04/07 09:23:36;;;;;;;5.85;3.95;;;12.70;99.90;;;;;;5026506;28;20475;-74
2023/04/07 09:26:18;;;;;;;4.85;3.70;;;13.30;99.90;;;;;;5034469;28;20033;-74
2023/04/07 09:28:46;;;;;;;4.85;3.30;;;13.00;99.90;;;;;;5029418;28;20030;-77
2023/04/07 09:31:13;;;;;;;4.57;2.90;;;12.70;99.90;;;;;;5030476;28;20045;-75
2023/04/07 09:33:39;;;;;;;6.03;3.72;;;12.90;99.90;;;;;;5030359;28;20344;-75
2023/04/07 09:36:06;;;;;;;5.10;3.72;;;13.30;99.90;;;;;;5031834;28;20033;-75
2023/04/07 09:38:34;;;;;;;6.15;3.60;;;13.60;99.90;;;;;;5028856;28;20398;-75
2023/04/07 09:41:13;;;;;;;7.25;4.00;;;13.10;99.90;;;;;;5034280;28;20049;-75
2023/04/07 09:43:43;;;;;;;7.43;4.95;;;12.30;99.90;;;;;;5044037;28;20044;-74
2023/04/07 09:46:15;;;;;;;7.10;5.17;;;11.90;99.90;;;;;;5027328;28;20047;-75
2023/04/07 09:48:42;;;;;;;9.02;4.47;;;11.80;99.90;;;;;;5029410;28;20501;-75
2023/04/07 09:51:13;;;;;;;7.38;5.43;;;11.90;99.90;;;;;;5033248;28;20064;-75
2023/04/07 09:53:47;;;;;;;7.18;4.13;;;12.10;99.90;;;;;;5030291;28;20033;-75
2023/04/07 09:56:16;;;;;;;5.82;3.25;;;12.10;99.90;;;;;;5028360;28;20029;-76
2023/04/07 09:58:45;;;;;;;7.15;3.75;;;12.30;99.90;;;;;;5032517;28;20045;-75
2023/04/07 10:01:12;;;;;;;5.22;3.08;;;12.20;99.90;;;;;;5033390;28;20386;-76
2023/04/07 10:03:39;;;;;;;6.72;4.32;;;11.90;99.90;;;;;;5029159;28;20045;-75
2023/04/07 10:06:06;;;;;;;4.75;2.90;;;11.60;99.90;;;;;;5033146;28;20038;-85
2023/04/07 10:08:35;;;;;;;4.95;3.22;;;11.50;99.90;;;;;;5031624;28;20037;-76
2023/04/07 10:11:02;;;;;;;4.93;3.00;;;11.40;99.90;;;;;;5033198;28;20042;-75
2023/04/07 10:13:30;;;;;;;5.30;3.15;;;11.40;1.00;;;;;;5029688;28;20029;-75
2023/04/07 10:15:57;;;;;;;5.53;3.40;;;11.30;1.00;;;;;;5034347;28;20376;-75
2023/04/07 10:18:31;;;;;;;5.95;3.10;;;11.10;1.00;;;;;;5031831;28;20474;-76
2023/04/07 10:21:01;;;;;;;5.55;2.95;;;11.20;1.00;;;;;;5026675;28;20037;-75
2023/04/07 10:23:38;;;;;;;5.90;4.35;;;11.00;1.00;;;;;;5032190;28;20038;-74
2023/04/07 10:26:06;;;;;;;4.85;3.53;;;10.70;1.00;;;;;;5027822;28;20040;-75
2023/04/07 10:28:36;;;;;;;5.60;3.20;;;10.70;1.00;;;;;;5030925;28;20033;-75
2023/04/07 10:31:03;;;;;;;5.65;3.67;;;10.60;1.00;;;;;;5030252;28;20057;-75
2023/04/07 10:33:46;;;;;;;5.90;3.83;;;10.70;1.00;;;;;;5031398;28;20360;-75
2023/04/07 10:36:12;;;;;;;5.63;4.15;;;10.90;1.00;;;;;;5027629;28;20398;-75
2023/04/07 10:38:38;;;;;;;6.47;3.65;;;10.70;1.00;;;;;;5030785;28;20045;-75
2023/04/07 10:41:36;;;;;;;6.38;3.80;;;10.70;1.00;;;;;;5030144;28;20140;-74
2023/04/07 10:44:03;;;;;;;7.57;4.70;;;10.80;1.00;;;;;;5019964;28;20052;-75
2023/04/07 10:46:45;;;;;;;8.80;5.22;;;10.60;1.00;;;;;;5018016;28;20030;-74
2023/04/07 10:49:15;;;;;;;7.10;4.63;;;10.60;1.00;;;;;;5033158;28;20143;-75
2023/04/07 10:51:41;;;;;;;6.45;3.90;;;11.10;1.00;;;;;;5026803;28;20037;-75
2023/04/07 10:54:19;;;;;;;4.45;2.22;;;11.60;1.00;;;;;;5027870;28;20208;-79
2023/04/07 10:57:09;;;;;;;3.53;1.85;;;11.70;1.00;;;;;;5030654;28;20386;-75
2023/04/07 10:59:37;;;;;;;2.92;2.10;;;11.50;99.90;;;;;;5029406;28;20395;-75
2023/04/07 11:02:12;;;;;;;4.28;2.95;;;11.60;1.00;;;;;;5020225;28;20513;-75
2023/04/07 11:04:41;;;;;;;4.53;3.22;;;11.80;1.00;;;;;;5022967;28;20041;-75
2023/04/07 11:07:08;;;;;;;3.60;2.80;;;12.10;1.00;;;;;;5029216;28;20105;-82
2023/04/07 11:09:35;;;;;;;5.50;4.07;;;12.20;99.90;;;;;;5032499;28;20376;-76
2023/04/07 11:12:01;;;;;;;5.60;3.78;;;12.20;1.00;;;;;;5032149;28;20048;-75
2023/04/07 11:14:28;;;;;;;4.88;3.63;;;12.10;1.00;;;;;;5032008;28;20045;-76
2023/04/07 11:16:55;;;;;;;5.75;3.55;;;12.40;1.00;;;;;;5027543;28;20026;-75
2023/04/07 11:19:22;;;;;;;5.13;3.78;;;12.50;99.90;;;;;;5028740;28;20037;-75
2023/04/07 11:21:48;;;;;;;4.38;3.25;;;12.30;99.90;;;;;;5031526;28;20037;-75
2023/04/07 11:24:39;;;;;;;5.63;4.47;;;11.90;99.90;;;;;;5031068;28;20408;-75
2023/04/07 11:27:12;;;;;;;4.72;3.40;;;12.10;99.90;;;;;;5030345;28;20052;-75
2023/04/07 11:29:38;;;;;;;4.65;2.90;;;12.60;99.90;;;;;;5027408;28;20037;-75
2023/04/07 11:32:04;;;;;;;2.65;1.73;;;12.90;99.90;;;;;;5032172;28;20371;-74
2023/04/07 11:34:32;;;;;;;2.17;1.50;;;12.50;99.90;;;;;;5031359;28;20030;-74
2023/04/07 11:37:21;;;;;;;4.60;1.42;;;12.30;99.90;;;;;;5029201;28;20059;-74
2023/04/07 11:39:54;;;;;;;2.13;1.42;;;11.80;99.90;;;;;;5023560;28;20060;-75
2023/04/07 11:42:38;;;;;;;1.98;1.30;;;12.10;99.90;;;;;;5031391;28;20042;-76
2023/04/07 11:45:15;;;;;;;3.85;1.58;;;12.10;99.90;;;;;;5030657;28;20421;-75
2023/04/07 11:47:41;;;;;;;3.40;1.40;;;12.10;99.90;;;;;;5024204;28;20037;-75
2023/04/07 11:50:08;;;;;;;2.97;1.90;;;12.40;99.90;;;;;;5025034;28;20034;-75
2023/04/07 11:52:45;;;;;;;5.53;1.80;;;12.30;99.90;;;;;;5031354;28;20037;-75
2023/04/07 11:55:25;;;;;;;3.08;2.10;;;12.30;99.90;;;;;;5019908;28;20036;-75
2023/04/07 11:57:52;;;;;;;3.05;2.38;;;12.30;99.90;;;;;;5029826;28;20373;-75
2023/04/07 12:00:19;;;;;;;3.22;2.30;;;12.10;99.90;;;;;;5026121;28;20067;-75
2023/04/07 12:02:45;;;;;;;3.47;2.72;;;11.80;99.90;;;;;;5028668;28;20374;-76
2023/04/07 12:05:12;;;;;;;4.13;2.72;;;11.70;99.90;;;;;;5026236;28;20037;-77
2023/04/07 12:07:40;;;;;;;3.88;2.67;;;11.60;99.90;;;;;;5030628;28;20033;-74
2023/04/07 12:10:21;;;;;;;4.38;2.83;;;11.30;99.90;;;;;;5028932;28;20037;-74
2023/04/07 12:12:47;;;;;;;3.28;2.30;;;11.30;99.90;;;;;;5021776;28;20419;-75
2023/04/07 12:15:14;;;;;;;4.07;3.42;;;11.10;99.90;;;;;;5022498;28;20030;-74
2023/04/07 12:17:46;;;;;;;4.10;2.90;;;11.20;99.90;;;;;;5031297;28;20045;-74
2023/04/07 12:20:13;;;;;;;3.72;2.35;;;11.20;99.90;;;;;;5030705;28;20064;-74
2023/04/07 12:22:40;;;;;;;3.83;2.55;;;11.40;99.90;;;;;;5027527;28;20041;-74
2023/04/07 12:25:06;;;;;;;3.55;2.70;;;11.80;99.90;;;;;;5030340;28;20399;-74
2023/04/07 12:27:33;;;;;;;5.32;4.03;;;12.10;99.90;;;;;;5028827;28;20477;-75
2023/04/07 12:29:59;;;;;;;4.45;3.05;;;12.40;99.90;;;;;;5026927;28;20029;-76
2023/04/07 12:32:25;;;;;;;3.40;2.40;;;12.10;99.90;;;;;;5030702;28;20045;-73
2023/04/07 12:34:51;;;;;;;4.10;2.38;;;11.90;99.90;;;;;;5023830;28;20033;-74
2023/04/07 12:37:17;;;;;;;3.92;2.90;;;11.80;99.90;;;;;;5026341;28;20026;-74
2023/04/07 12:39:43;;;;;;;3.65;2.55;;;11.60;1.00;;;;;;5030217;28;20037;-74
2023/04/07 12:42:10;;;;;;;5.45;3.38;;;11.20;1.00;;;;;;5027329;28;20060;-74
2023/04/07 12:44:37;;;;;;;5.97;4.03;;;10.80;1.00;;;;;;5025689;28;20053;-79
2023/04/07 12:47:03;;;;;;;6.10;3.90;;;10.70;1.00;;;;;;5033307;28;20151;-74
2023/04/07 12:49:29;;;;;;;6.03;4.28;;;10.80;1.00;;;;;;5031613;28;20041;-75
2023/04/07 12:51:56;;;;;;;6.15;4.72;;;10.90;1.00;;;;;;5032014;28;20037;-74
2023/04/07 12:54:22;;;;;;;7.88;4.75;;;10.90;1.00;;;;;;5034277;28;20427;-74
2023/04/07 12:56:49;;;;;;;7.55;5.60;;;10.80;1.00;;;;;;5031743;28;20029;-73
2023/04/07 12:59:15;;;;;;;7.53;5.28;;;10.60;1.00;;;;;;5031996;28;20045;-74